createdAt,value
2023-02-07T09:42:17.712Z,10.40
2023-02-07T09:44:57.216Z,10.70
2023-02-07T09:47:25.018Z,8.50
2023-02-07T09:49:55.485Z,8.80
2023-02-07T09:52:38.877Z,7.60
2023-02-07T09:55:06.133Z,8.10
2023-02-07T09:57:45.282Z,8.10
2023-02-07T10:00:28.860Z,9.10
2023-02-07T10:03:21.550Z,8.40
2023-02-07T10:06:18.909Z,8.80
2023-02-07T10:08:47.357Z,7.90
2023-02-07T10:11:25.030Z,7.60
2023-02-07T10:14:01.646Z,7.30
2023-02-07T10:16:41.313Z,8.10
2023-02-07T10:19:35.346Z,7.30
2023-02-07T10:22:30.117Z,7.30
2023-02-07T10:25:21.893Z,6.50
2023-02-07T10:28:04.043Z,7.70
2023-02-07T10:30:32.476Z,6.70
2023-02-07T10:33:12.291Z,6.70
2023-02-07T10:35:39.380Z,7.30
2023-02-07T10:38:17.674Z,8.90
2023-02-07T10:40:51.202Z,9.60
2023-02-07T10:43:28.499Z,8.10
2023-02-07T10:46:05.556Z,11.20
2023-02-07T10:48:33.209Z,11.30
2023-02-07T10:51:19.474Z,10.30
2023-02-07T10:53:59.733Z,10.80
2023-02-07T10:56:27.285Z,11.10
2023-02-07T10:58:57.646Z,9.40
2023-02-07T11:01:26.569Z,10.20
2023-02-07T11:03:54.054Z,11.20
2023-02-07T11:06:30.502Z,9.20
2023-02-07T11:09:23.004Z,8.00
2023-02-07T11:11:51.935Z,7.60
2023-02-07T11:14:25.837Z,7.50
2023-02-07T11:16:54.233Z,7.40
2023-02-07T11:19:23.880Z,8.60
2023-02-07T11:21:51.904Z,8.10
2023-02-07T11:24:24.975Z,7.90
2023-02-07T11:27:02.352Z,7.70
2023-02-07T11:29:31.144Z,8.30
2023-02-07T11:31:59.332Z,8.80
2023-02-07T11:34:27.772Z,7.90
2023-02-07T11:36:56.165Z,9.60
2023-02-07T11:39:23.043Z,9.00
2023-02-07T11:42:00.425Z,9.60
2023-02-07T11:44:29.840Z,9.30
2023-02-07T11:46:58.804Z,9.50
2023-02-07T11:49:37.680Z,11.80
2023-02-07T11:52:04.893Z,12.00
2023-02-07T11:54:31.896Z,11.70
2023-02-07T11:57:06.587Z,9.90
